Time;durP1;ratioP1;P1;durP2;ratioP2;P2;SDS_P1;SDS_P2;PMS_P1;PMS_P2;Temp;Humidity;BMP_temperature;BMP_pressure;BME280_temperature;BME280_humidity;BME280_pressure;Samples;Min_cycle;Max_cycle;Signal;HPM_P1;HPM_P2
2023/07/21 00:01:41;;;;;;;;;;;;;;;;;;4997204;28;19972;-91
2023/07/21 00:04:07;;;;;;;;;;;;;;;;;;4997149;28;20013;-91
2023/07/21 00:06:33;;;;;;;;;;;;;;;;;;4997139;28;20008;-91
2023/07/21 00:08:59;;;;;;;;;;;;;;;;;;4981359;28;20335;-91
2023/07/21 00:11:25;;;;;;;;;;;;;;;;;;4980979;28;20378;-92
2023/07/21 00:13:51;;;;;;;;;;;;;;;;;;4981355;28;19928;-92
2023/07/21 00:16:18;;;;;;;;;;;;;;;;;;4997352;28;19972;-92
2023/07/21 00:18:46;;;;;;;;;;;;;;;;;;4980974;28;19926;-93
2023/07/21 00:21:12;;;;;;;;;;;;;;;;;;4997164;28;19959;-91
2023/07/21 00:23:38;;;;;;;;;;;;;;;;;;4981092;28;19972;-92
2023/07/21 00:26:04;;;;;;;;;;;;;;;;;;4980599;28;19921;-92
2023/07/21 00:28:30;;;;;;;;;;;;;;;;;;4997179;28;20281;-92
2023/07/21 00:30:56;;;;;;;;;;;;;;;;;;4997312;28;19926;-91
2023/07/21 00:33:24;;;;;;;;;;;;;;;;;;4996927;28;19979;-92
2023/07/21 00:35:50;;;;;;;;;;;;;;;;;;4996647;28;19922;-91
2023/07/21 00:38:16;;;;;;;;;;;;;;;;;;4980156;28;20349;-92
2023/07/21 00:40:42;;;;;;;;;;;;;;;;;;5014093;28;20019;-92
2023/07/21 00:43:16;;;;;;;;;;;;;;;;;;4980655;28;20467;-92
2023/07/21 00:45:42;;;;;;;;;;;;;;;;;;4997198;28;20006;-92
2023/07/21 00:48:08;;;;;;;;;;;;;;;;;;4996337;28;20368;-92
2023/07/21 00:50:34;;;;;;;;;;;;;;;;;;4996543;28;20024;-92
2023/07/21 00:53:00;;;;;;;;;;;;;;;;;;4996857;28;19987;-92
2023/07/21 00:55:26;;;;;;;;;;;;;;;;;;4996384;28;19943;-91
2023/07/21 00:57:52;;;;;;;;;;;;;;;;;;4996753;28;20090;-91
2023/07/21 01:00:18;;;;;;;;;;;;;;;;;;4996129;28;19929;-91
2023/07/21 01:02:45;;;;;;;;;;;;;;;;;;4980109;28;20373;-90
2023/07/21 01:05:12;;;;;;;;;;;;;;;;;;4979952;28;20349;-91
2023/07/21 01:07:38;;;;;;;;;;;;;;;;;;4996269;28;19928;-92
2023/07/21 01:10:04;;;;;;;;;;;;;;;;;;4996162;28;19922;-91
2023/07/21 01:12:30;;;;;;;;;;;;;;;;;;4996087;28;20008;-92
2023/07/21 01:14:56;;;;;;;;;;;;;;;;;;4979799;28;20338;-91
2023/07/21 01:17:22;;;;;;;;;;;;;;;;;;4979964;28;20373;-92
2023/07/21 01:19:48;;;;;;;;;;;;;;;;;;4995981;28;20389;-92
2023/07/21 01:22:14;;;;;;;;;;;;;;;;;;4979897;28;19921;-91
2023/07/21 01:24:43;;;;;;;;;;;;;;;;;;4995812;28;19979;-92
2023/07/21 01:27:09;;;;;;;;;;;;;;;;;;4979400;28;20013;-91
2023/07/21 01:29:35;;;;;;;;;;;;;;;;;;4995753;28;19976;-92
2023/07/21 01:32:01;;;;;;;;;;;;;;;;;;4995824;28;19929;-91
2023/07/21 01:34:27;;;;;;;;;;;;;;;;;;4978914;28;20332;-91
2023/07/21 01:36:53;;;;;;;;;;;;;;;;;;4995711;28;19928;-91
2023/07/21 01:39:19;;;;;;;;;;;;;;;;;;4995650;28;20009;-92
2023/07/21 01:41:45;;;;;;;;;;;;;;;;;;4995924;28;20455;-92
2023/07/21 01:44:12;;;;;;;;;;;;;;;;;;4995588;28;19922;-91
2023/07/21 01:46:38;;;;;;;;;;;;;;;;;;4979373;28;19926;-92
2023/07/21 01:49:04;;;;;;;;;;;;;;;;;;5013353;28;19991;-92
2023/07/21 01:51:31;;;;;;;;;;;;;;;;;;4995820;28;19925;-92
2023/07/21 01:53:57;;;;;;;;;;;;;;;;;;4996230;28;19999;-92
2023/07/21 01:56:23;;;;;;;;;;;;;;;;;;4995605;28;19921;-92
2023/07/21 01:58:48;;;;;;;;;;;;;;;;;;4995836;28;20368;-91
2023/07/21 02:01:14;;;;;;;;;;;;;;;;;;5013524;28;19921;-92
2023/07/21 02:03:40;;;;;;;;;;;;;;;;;;4995637;28;19921;-92
2023/07/21 02:06:06;;;;;;;;;;;;;;;;;;4995830;28;19928;-91
2023/07/21 02:08:32;;;;;;;;;;;;;;;;;;4995645;28;19925;-93
2023/07/21 02:10:59;;;;;;;;;;;;;;;;;;4995800;28;19928;-92
2023/07/21 02:13:25;;;;;;;;;;;;;;;;;;4979717;28;19921;-92
2023/07/21 02:15:51;;;;;;;;;;;;;;;;;;4995880;28;19989;-92
2023/07/21 02:18:17;;;;;;;;;;;;;;;;;;4995465;28;20433;-93
2023/07/21 02:20:43;;;;;;;;;;;;;;;;;;4979318;28;20251;-92
2023/07/21 02:23:09;;;;;;;;;;;;;;;;;;4995952;28;19933;-92
2023/07/21 02:25:35;;;;;;;;;;;;;;;;;;5013020;28;19937;-91
2023/07/21 02:28:01;;;;;;;;;;;;;;;;;;4995168;28;19929;-91
2023/07/21 02:30:29;;;;;;;;;;;;;;;;;;5013022;28;20379;-91
2023/07/21 02:32:54;;;;;;;;;;;;;;;;;;4995212;28;19986;-91
2023/07/21 02:35:20;;;;;;;;;;;;;;;;;;5012754;28;19925;-90
2023/07/21 02:37:46;;;;;;;;;;;;;;;;;;4978581;28;19932;-90
2023/07/21 02:40:12;;;;;;;;;;;;;;;;;;4978470;28;19930;-90
2023/07/21 02:42:38;;;;;;;;;;;;;;;;;;4978704;28;20012;-90
2023/07/21 02:45:05;;;;;;;;;;;;;;;;;;4994907;28;20360;-90
2023/07/21 02:47:31;;;;;;;;;;;;;;;;;;4978449;28;19925;-90
2023/07/21 02:49:56;;;;;;;;;;;;;;;;;;4978764;28;20301;-90
2023/07/21 02:52:22;;;;;;;;;;;;;;;;;;4995135;28;20365;-90
2023/07/21 02:54:48;;;;;;;;;;;;;;;;;;4994780;28;20396;-91
2023/07/21 02:57:14;;;;;;;;;;;;;;;;;;5012160;28;20192;-90
2023/07/21 02:59:41;;;;;;;;;;;;;;;;;;4994876;28;20328;-92
2023/07/21 03:02:07;;;;;;;;;;;;;;;;;;4979612;28;19944;-92
2023/07/21 03:04:34;;;;;;;;;;;;;;;;;;4982597;28;19922;-91
2023/07/21 03:07:00;;;;;;;;;;;;;;;;;;4998320;28;20365;-93
2023/07/21 03:09:26;;;;;;;;;;;;;;;;;;4982165;28;19927;-91
2023/07/21 03:11:56;;;;;;;;;;;;;;;;;;5015559;28;20015;-91
2023/07/21 03:14:22;;;;;;;;;;;;;;;;;;4998458;28;19971;-91
2023/07/21 03:16:48;;;;;;;;;;;;;;;;;;4982055;28;20239;-92
2023/07/21 03:19:14;;;;;;;;;;;;;;;;;;4981491;28;20322;-92
2023/07/21 03:21:41;;;;;;;;;;;;;;;;;;4998279;28;19978;-92
2023/07/21 03:24:07;;;;;;;;;;;;;;;;;;4982022;28;19929;-92
2023/07/21 03:26:33;;;;;;;;;;;;;;;;;;5015582;28;20012;-91
2023/07/21 03:28:59;;;;;;;;;;;;;;;;;;5015901;28;20035;-92
2023/07/21 03:31:25;;;;;;;;;;;;;;;;;;4981960;28;19922;-92
2023/07/21 03:33:50;;;;;;;;;;;;;;;;;;4981661;28;19983;-91
2023/07/21 03:36:19;;;;;;;;;;;;;;;;;;4999223;28;19980;-91
2023/07/21 03:38:45;;;;;;;;;;;;;;;;;;4998200;28;19946;-91
2023/07/21 03:41:11;;;;;;;;;;;;;;;;;;4997806;28;19922;-92
2023/07/21 03:43:37;;;;;;;;;;;;;;;;;;4998397;28;19922;-90
2023/07/21 03:46:03;;;;;;;;;;;;;;;;;;4981671;28;19932;-90
2023/07/21 03:48:29;;;;;;;;;;;;;;;;;;4995151;28;19926;-92
2023/07/21 03:50:55;;;;;;;;;;;;;;;;;;4995595;28;19968;-93
2023/07/21 03:53:21;;;;;;;;;;;;;;;;;;4994511;28;20015;-92
2023/07/21 03:55:47;;;;;;;;;;;;;;;;;;4996176;28;19922;-92
2023/07/21 03:58:14;;;;;;;;;;;;;;;;;;4996402;28;20008;-92
2023/07/21 04:00:42;;;;;;;;;;;;;;;;;;4995673;28;20405;-90
2023/07/21 04:03:08;;;;;;;;;;;;;;;;;;4996236;28;19929;-91
2023/07/21 04:05:34;;;;;;;;;;;;;;;;;;4978547;28;19972;-94
2023/07/21 04:08:00;;;;;;;;;;;;;;;;;;4994424;28;20381;-92
2023/07/21 04:10:26;;;;;;;;;;;;;;;;;;4994622;28;19921;-92
2023/07/21 04:12:52;;;;;;;;;;;;;;;;;;4995338;28;19922;-92
2023/07/21 04:15:18;;;;;;;;;;;;;;;;;;4993095;28;19926;-92
2023/07/21 04:17:44;;;;;;;;;;;;;;;;;;4993792;28;19968;-92
2023/07/21 04:20:10;;;;;;;;;;;;;;;;;;4994061;28;19926;-93
2023/07/21 04:22:36;;;;;;;;;;;;;;;;;;4993873;28;19944;-92
2023/07/21 04:25:02;;;;;;;;;;;;;;;;;;4993750;28;19950;-93
2023/07/21 04:27:28;;;;;;;;;;;;;;;;;;4977312;28;20296;-92
2023/07/21 04:29:54;;;;;;;;;;;;;;;;;;4977433;28;19968;-92
2023/07/21 04:32:20;;;;;;;;;;;;;;;;;;4977434;28;19922;-93
2023/07/21 04:34:46;;;;;;;;;;;;;;;;;;4994969;28;19926;-92
2023/07/21 04:37:13;;;;;;;;;;;;;;;;;;4994548;28;19925;-96
2023/07/21 04:39:39;;;;;;;;;;;;;;;;;;4994587;28;20330;-92
2023/07/21 04:42:05;;;;;;;;;;;;;;;;;;4977351;28;19948;-91
2023/07/21 04:44:31;;;;;;;;;;;;;;;;;;4974144;28;20026;-91
2023/07/21 04:46:57;;;;;;;;;;;;;;;;;;4962168;28;19932;-92
2023/07/21 04:49:23;;;;;;;;;;;;;;;;;;4976890;28;20273;-92
2023/07/21 04:51:49;;;;;;;;;;;;;;;;;;4992915;28;19948;-91
2023/07/21 04:54:15;;;;;;;;;;;;;;;;;;4994644;28;20020;-91
2023/07/21 04:56:42;;;;;;;;;;;;;;;;;;4993012;28;20024;-91
2023/07/21 04:59:08;;;;;;;;;;;;;;;;;;4976680;28;19926;-90
2023/07/21 05:01:34;;;;;;;;;;;;;;;;;;4989858;28;19946;-91
2023/07/21 05:04:00;;;;;;;;;;;;;;;;;;4988212;28;19948;-91
2023/07/21 05:06:26;;;;;;;;;;;;;;;;;;4975363;28;19929;-91
2023/07/21 05:08:52;;;;;;;;;;;;;;;;;;4975585;28;19976;-91
2023/07/21 05:11:18;;;;;;;;;;;;;;;;;;4975744;28;19922;-91
2023/07/21 05:13:48;;;;;;;;;;;;;;;;;;4992866;28;19972;-91
2023/07/21 05:16:14;;;;;;;;;;;;;;;;;;4992134;28;20021;-90
2023/07/21 05:18:41;;;;;;;;;;;;;;;;;;4976268;28;19983;-91
2023/07/21 05:21:07;;;;;;;;;;;;;;;;;;4992689;28;20301;-90
2023/07/21 05:23:33;;;;;;;;;;;;;;;;;;4992926;28;19925;-91
2023/07/21 05:26:00;;;;;;;;;;;;;;;;;;4976526;28;19922;-92
2023/07/21 05:28:26;;;;;;;;;;;;;;;;;;4992550;28;20281;-93
2023/07/21 05:30:52;;;;;;;;;;;;;;;;;;4976703;28;19922;-93
2023/07/21 05:33:17;;;;;;;;;;;;;;;;;;4992422;28;19979;-92
2023/07/21 05:35:43;;;;;;;;;;;;;;;;;;4976059;28;20380;-91
2023/07/21 05:38:10;;;;;;;;;;;;;;;;;;4992422;28;20024;-92
2023/07/21 05:40:36;;;;;;;;;;;;;;;;;;4975978;28;20005;-91
2023/07/21 05:43:04;;;;;;;;;;;;;;;;;;4993664;28;20398;-91
2023/07/21 05:45:29;;;;;;;;;;;;;;;;;;4976402;28;19923;-91
2023/07/21 05:47:55;;;;;;;;;;;;;;;;;;4988026;28;19925;-91
2023/07/21 05:50:21;;;;;;;;;;;;;;;;;;4998364;28;20297;-91
2023/07/21 05:52:47;;;;;;;;;;;;;;;;;;4995843;28;19922;-91
2023/07/21 05:55:13;;;;;;;;;;;;;;;;;;5013657;28;20004;-92
2023/07/21 05:57:39;;;;;;;;;;;;;;;;;;4979075;28;20396;-92
2023/07/21 06:00:05;;;;;;;;;;;;;;;;;;4995197;28;19925;-90
2023/07/21 06:02:31;;;;;;;;;;;;;;;;;;4978543;28;20420;-93
2023/07/21 06:05:00;;;;;;;;;;;;;;;;;;4996010;28;19921;-92
2023/07/21 06:07:28;;;;;;;;;;;;;;;;;;4994792;28;20286;-91
2023/07/21 06:09:54;;;;;;;;;;;;;;;;;;4995376;28;19961;-91
2023/07/21 06:12:22;;;;;;;;;;;;;;;;;;4979141;28;20328;-90
2023/07/21 06:14:48;;;;;;;;;;;;;;;;;;4995071;28;19921;-93
2023/07/21 06:17:14;;;;;;;;;;;;;;;;;;4995125;28;19928;-92
2023/07/21 06:19:40;;;;;;;;;;;;;;;;;;4978861;28;19940;-93
2023/07/21 06:22:06;;;;;;;;;;;;;;;;;;4979967;28;20281;-91
2023/07/21 06:24:32;;;;;;;;;;;;;;;;;;4995936;28;19925;-92
2023/07/21 06:26:59;;;;;;;;;;;;;;;;;;4996243;28;19922;-91
2023/07/21 06:29:24;;;;;;;;;;;;;;;;;;4979951;28;19921;-91
2023/07/21 06:31:51;;;;;;;;;;;;;;;;;;5012536;28;19996;-90
2023/07/21 06:34:17;;;;;;;;;;;;;;;;;;4994988;28;19921;-90
2023/07/21 06:36:43;;;;;;;;;;;;;;;;;;4994740;28;19972;-91
2023/07/21 06:39:09;;;;;;;;;;;;;;;;;;5016258;28;19925;-90
2023/07/21 06:41:35;;;;;;;;;;;;;;;;;;4982607;28;20297;-91
2023/07/21 06:44:01;;;;;;;;;;;;;;;;;;4998544;28;19972;-91
2023/07/21 06:46:27;;;;;;;;;;;;;;;;;;4981820;28;19928;-91
2023/07/21 06:48:53;;;;;;;;;;;;;;;;;;4982462;28;19937;-93
2023/07/21 06:51:19;;;;;;;;;;;;;;;;;;4982318;28;19985;-92
2023/07/21 06:53:47;;;;;;;;;;;;;;;;;;4998341;28;20332;-92
2023/07/21 06:56:13;;;;;;;;;;;;;;;;;;4998768;28;20334;-92
2023/07/21 06:58:39;;;;;;;;;;;;;;;;;;4998090;28;19927;-92
2023/07/21 07:01:07;;;;;;;;;;;;;;;;;;4998079;28;20011;-91
2023/07/21 07:03:33;;;;;;;;;;;;;;;;;;4982265;28;20446;-91
2023/07/21 07:05:59;;;;;;;;;;;;;;;;;;4982515;28;19972;-92
2023/07/21 07:08:25;;;;;;;;;;;;;;;;;;4981736;28;19926;-91
2023/07/21 07:10:51;;;;;;;;;;;;;;;;;;4981847;28;19921;-92
2023/07/21 07:13:18;;;;;;;;;;;;;;;;;;4997606;28;20436;-89
2023/07/21 07:15:44;;;;;;;;;;;;;;;;;;4997681;28;19929;-90
2023/07/21 07:18:11;;;;;;;;;;;;;;;;;;4981408;28;19969;-90
2023/07/21 07:20:38;;;;;;;;;;;;;;;;;;4981117;28;20396;-90
2023/07/21 07:23:04;;;;;;;;;;;;;;;;;;4997514;28;20004;-91
2023/07/21 07:25:30;;;;;;;;;;;;;;;;;;4981311;28;19984;-90
2023/07/21 07:27:56;;;;;;;;;;;;;;;;;;4997151;28;19921;-91
2023/07/21 07:30:22;;;;;;;;;;;;;;;;;;4997303;28;19922;-91
2023/07/21 07:32:48;;;;;;;;;;;;;;;;;;4997526;28;19921;-91
2023/07/21 07:35:14;;;;;;;;;;;;;;;;;;4981171;28;19921;-91
2023/07/21 07:37:40;;;;;;;;;;;;;;;;;;4997226;28;19929;-91
2023/07/21 07:40:06;;;;;;;;;;;;;;;;;;5014631;28;19977;-91
2023/07/21 07:42:32;;;;;;;;;;;;;;;;;;4979355;28;20016;-90
2023/07/21 07:45:00;;;;;;;;;;;;;;;;;;4996926;28;20424;-90
2023/07/21 07:47:25;;;;;;;;;;;;;;;;;;4996723;28;19925;-90
2023/07/21 07:49:51;;;;;;;;;;;;;;;;;;4996950;28;20396;-90
2023/07/21 07:52:18;;;;;;;;;;;;;;;;;;4981215;28;20399;-90
2023/07/21 07:54:44;;;;;;;;;;;;;;;;;;4997227;28;19928;-90
2023/07/21 07:57:10;;;;;;;;;;;;;;;;;;4996710;28;19922;-91
2023/07/21 07:59:36;;;;;;;;;;;;;;;;;;4996857;28;19929;-90
2023/07/21 08:02:02;;;;;;;;;;;;;;;;;;4996740;28;20385;-90
2023/07/21 08:04:28;;;;;;;;;;;;;;;;;;4996601;28;19932;-90
2023/07/21 08:06:53;;;;;;;;;;;;;;;;;;5014172;28;19921;-91
2023/07/21 08:09:22;;;;;;;;;;;;;;;;;;5014407;28;20012;-90
2023/07/21 08:11:48;;;;;;;;;;;;;;;;;;4996971;28;20000;-92
2023/07/21 08:14:14;;;;;;;;;;;;;;;;;;4997614;28;19980;-94
2023/07/21 08:16:43;;;;;;;;;;;;;;;;;;5004647;28;19929;-96
2023/07/21 08:19:19;;;;;;;;;;;;;;;;;;5014759;28;19925;-92
2023/07/21 08:21:47;;;;;;;;;;;;;;;;;;4981023;28;19967;-93
2023/07/21 08:24:14;;;;;;;;;;;;;;;;;;4996675;28;19995;-94
2023/07/21 08:26:40;;;;;;;;;;;;;;;;;;4996818;28;19932;-92
2023/07/21 08:29:08;;;;;;;;;;;;;;;;;;4980423;28;19921;-91
2023/07/21 08:31:34;;;;;;;;;;;;;;;;;;4979985;28;19978;-89
2023/07/21 08:34:00;;;;;;;;;;;;;;;;;;4996039;28;19929;-89
2023/07/21 08:36:26;;;;;;;;;;;;;;;;;;4996071;28;19922;-91
2023/07/21 08:38:52;;;;;;;;;;;;;;;;;;4995994;28;19933;-90
2023/07/21 08:41:18;;;;;;;;;;;;;;;;;;4995939;28;19921;-91
2023/07/21 08:43:44;;;;;;;;;;;;;;;;;;5014284;28;19921;-93
2023/07/21 08:46:10;;;;;;;;;;;;;;;;;;5013794;28;20020;-91
2023/07/21 08:48:36;;;;;;;;;;;;;;;;;;4981070;28;19926;-94
2023/07/21 08:51:03;;;;;;;;;;;;;;;;;;4980543;28;19921;-91
2023/07/21 08:53:29;;;;;;;;;;;;;;;;;;4979278;28;19922;-89
2023/07/21 08:55:55;;;;;;;;;;;;;;;;;;4995542;28;20274;-90
2023/07/21 08:58:21;;;;;;;;;;;;;;;;;;4995620;28;19922;-90
2023/07/21 09:00:47;;;;;;;;;;;;;;;;;;4994924;28;20324;-88
2023/07/21 09:03:13;;;;;;;;;;;;;;;;;;4979340;28;20016;-90
2023/07/21 09:05:40;;;;;;;;;;;;;;;;;;4995489;28;19964;-89
2023/07/21 09:08:06;;;;;;;;;;;;;;;;;;4995555;28;19933;-89
2023/07/21 09:10:32;;;;;;;;;;;;;;;;;;4995345;28;20308;-88
2023/07/21 09:12:58;;;;;;;;;;;;;;;;;;4993779;28;19929;-87
2023/07/21 09:15:24;;;;;;;;;;;;;;;;;;4995347;28;19921;-90
2023/07/21 09:17:51;;;;;;;;;;;;;;;;;;4979215;28;19933;-90
2023/07/21 09:20:20;;;;;;;;;;;;;;;;;;5013531;28;20020;-91
2023/07/21 09:22:46;;;;;;;;;;;;;;;;;;4979068;28;20373;-91
2023/07/21 09:25:12;;;;;;;;;;;;;;;;;;4995320;28;19932;-90
2023/07/21 09:27:39;;;;;;;;;;;;;;;;;;4995327;28;19921;-89
2023/07/21 09:30:05;;;;;;;;;;;;;;;;;;4978991;28;19925;-90
2023/07/21 09:32:31;;;;;;;;;;;;;;;;;;4995145;28;20032;-90
2023/07/21 09:34:57;;;;;;;;;;;;;;;;;;4978870;28;19929;-91
2023/07/21 09:37:23;;;;;;;;;;;;;;;;;;4994758;28;19964;-91
2023/07/21 09:39:49;;;;;;;;;;;;;;;;;;4994904;28;19925;-90
2023/07/21 09:42:15;;;;;;;;;;;;;;;;;;4995575;28;20313;-90
2023/07/21 09:44:41;;;;;;;;;;;;;;;;;;5013895;28;19921;-90
2023/07/21 09:47:07;;;;;;;;;;;;;;;;;;4994888;28;19926;-90
2023/07/21 09:49:33;;;;;;;;;;;;;;;;;;4995096;28;19925;-92
2023/07/21 09:51:59;;;;;;;;;;;;;;;;;;5013124;28;20030;-91
2023/07/21 09:54:25;;;;;;;;;;;;;;;;;;4981293;28;19922;-91
2023/07/21 09:56:50;;;;;;;;;;;;;;;;;;4995674;28;19925;-91
2023/07/21 09:59:16;;;;;;;;;;;;;;;;;;4994906;28;20396;-91
2023/07/21 10:01:42;;;;;;;;;;;;;;;;;;4994979;28;19940;-91
2023/07/21 10:04:08;;;;;;;;;;;;;;;;;;5013660;28;19992;-91
2023/07/21 10:06:34;;;;;;;;;;;;;;;;;;5012651;28;19922;-91
2023/07/21 10:09:00;;;;;;;;;;;;;;;;;;4979452;28;19922;-92
2023/07/21 10:11:26;;;;;;;;;;;;;;;;;;4996290;28;20358;-91
2023/07/21 10:13:52;;;;;;;;;;;;;;;;;;4984726;28;20021;-92
2023/07/21 10:16:18;;;;;;;;;;;;;;;;;;5016820;28;19922;-92
2023/07/21 10:18:44;;;;;;;;;;;;;;;;;;4982302;28;20331;-91
2023/07/21 10:21:10;;;;;;;;;;;;;;;;;;4999169;28;20420;-92
2023/07/21 10:23:35;;;;;;;;;;;;;;;;;;4998943;28;20016;-92
2023/07/21 10:26:01;;;;;;;;;;;;;;;;;;4999116;28;19943;-92
2023/07/21 10:28:27;;;;;;;;;;;;;;;;;;4999088;28;20381;-92
2023/07/21 10:30:53;;;;;;;;;;;;;;;;;;4982524;28;19929;-91
2023/07/21 10:33:22;;;;;;;;;;;;;;;;;;4999078;28;20308;-94
2023/07/21 10:35:48;;;;;;;;;;;;;;;;;;4982992;28;19921;-91
2023/07/21 10:38:14;;;;;;;;;;;;;;;;;;4998544;28;19928;-92
2023/07/21 10:40:40;;;;;;;;;;;;;;;;;;4998673;28;20334;-90
2023/07/21 10:43:06;;;;;;;;;;;;;;;;;;4998671;28;19933;-92
2023/07/21 10:45:32;;;;;;;;;;;;;;;;;;5000301;28;19925;-92
2023/07/21 10:47:58;;;;;;;;;;;;;;;;;;4984871;28;20301;-92
2023/07/21 10:50:24;;;;;;;;;;;;;;;;;;5001181;28;19921;-92
2023/07/21 10:52:50;;;;;;;;;;;;;;;;;;5002218;28;19932;-92
2023/07/21 10:55:16;;;;;;;;;;;;;;;;;;5018864;28;20085;-94
2023/07/21 10:57:42;;;;;;;;;;;;;;;;;;5002713;28;20008;-93
2023/07/21 11:00:09;;;;;;;;;;;;;;;;;;4985070;28;20020;-92
2023/07/21 11:02:35;;;;;;;;;;;;;;;;;;5001757;28;19921;-93
2023/07/21 11:05:01;;;;;;;;;;;;;;;;;;5001257;28;19921;-94
2023/07/21 11:07:26;;;;;;;;;;;;;;;;;;4984584;28;19985;-93
2023/07/21 11:09:58;;;;;;;;;;;;;;;;;;4984832;28;19932;-94
2023/07/21 11:12:24;;;;;;;;;;;;;;;;;;5001247;28;20009;-92
2023/07/21 11:14:50;;;;;;;;;;;;;;;;;;4999994;28;19928;-91
2023/07/21 11:17:16;;;;;;;;;;;;;;;;;;4999913;28;20000;-91
2023/07/21 11:19:42;;;;;;;;;;;;;;;;;;5000440;28;19929;-90
2023/07/21 11:22:08;;;;;;;;;;;;;;;;;;4984238;28;19921;-90
2023/07/21 11:24:34;;;;;;;;;;;;;;;;;;5014972;28;20178;-92
2023/07/21 11:27:01;;;;;;;;;;;;;;;;;;4981594;28;19941;-89
2023/07/21 11:29:27;;;;;;;;;;;;;;;;;;4997719;28;20381;-90
2023/07/21 11:31:53;;;;;;;;;;;;;;;;;;4984494;28;19956;-90
2023/07/21 11:34:19;;;;;;;;;;;;;;;;;;4995861;28;19928;-93
2023/07/21 11:36:46;;;;;;;;;;;;;;;;;;5015369;28;20380;-91
2023/07/21 11:39:14;;;;;;;;;;;;;;;;;;4997491;28;19975;-89
2023/07/21 11:41:40;;;;;;;;;;;;;;;;;;4997850;28;20028;-90
2023/07/21 11:44:06;;;;;;;;;;;;;;;;;;5015006;28;20122;-89
2023/07/21 11:46:32;;;;;;;;;;;;;;;;;;4980326;28;19984;-89
2023/07/21 11:48:58;;;;;;;;;;;;;;;;;;4981017;28;19972;-89
2023/07/21 11:51:25;;;;;;;;;;;;;;;;;;5014733;28;19921;-89
2023/07/21 11:53:51;;;;;;;;;;;;;;;;;;4996969;28;19922;-90
2023/07/21 11:56:17;;;;;;;;;;;;;;;;;;4996777;28;19925;-89
2023/07/21 11:58:43;;;;;;;;;;;;;;;;;;5014801;28;20040;-89
2023/07/21 12:01:09;;;;;;;;;;;;;;;;;;4996874;28;20013;-89
2023/07/21 12:03:36;;;;;;;;;;;;;;;;;;4996297;28;19921;-89
2023/07/21 12:06:03;;;;;;;;;;;;;;;;;;4980756;28;20292;-89
2023/07/21 12:08:29;;;;;;;;;;;;;;;;;;5012934;28;19928;-91
2023/07/21 12:10:55;;;;;;;;;;;;;;;;;;5014378;28;19921;-91
2023/07/21 12:13:21;;;;;;;;;;;;;;;;;;4980435;28;19922;-90
2023/07/21 12:15:47;;;;;;;;;;;;;;;;;;4980291;28;20023;-91
2023/07/21 12:18:13;;;;;;;;;;;;;;;;;;4996505;28;20408;-90
2023/07/21 12:20:39;;;;;;;;;;;;;;;;;;4980471;28;20057;-90
2023/07/21 12:23:05;;;;;;;;;;;;;;;;;;4996503;28;19988;-90
2023/07/21 12:25:32;;;;;;;;;;;;;;;;;;4980249;28;19980;-90
2023/07/21 12:27:58;;;;;;;;;;;;;;;;;;4996436;28;20349;-90
2023/07/21 12:30:23;;;;;;;;;;;;;;;;;;4980534;28;19921;-90
2023/07/21 12:32:49;;;;;;;;;;;;;;;;;;5014135;28;19921;-90
2023/07/21 12:35:15;;;;;;;;;;;;;;;;;;4995327;28;19921;-90
2023/07/21 12:37:41;;;;;;;;;;;;;;;;;;4979921;28;19944;-90
2023/07/21 12:40:11;;;;;;;;;;;;;;;;;;4980020;28;19960;-90
2023/07/21 12:42:37;;;;;;;;;;;;;;;;;;4996460;28;19922;-90
2023/07/21 12:45:03;;;;;;;;;;;;;;;;;;4996287;28;19988;-90
2023/07/21 12:47:29;;;;;;;;;;;;;;;;;;4980058;28;19925;-90
2023/07/21 12:49:55;;;;;;;;;;;;;;;;;;4981056;28;19972;-89
2023/07/21 12:52:21;;;;;;;;;;;;;;;;;;4996459;28;20349;-90
2023/07/21 12:54:47;;;;;;;;;;;;;;;;;;4996361;28;19922;-90
2023/07/21 12:57:20;;;;;;;;;;;;;;;;;;5110001;27;19955;-89
2023/07/21 12:59:46;;;;;;;;;;;;;;;;;;5109763;28;19924;-91
2023/07/21 13:02:12;;;;;;;;;;;;;;;;;;5092321;28;19977;-92
2023/07/21 13:04:38;;;;;;;;;;;;;;;;;;5092072;28;19982;-90
2023/07/21 13:07:09;;;;;;;;;;;;;;;;;;5109302;28;19920;-91
2023/07/21 13:09:35;;;;;;;;;;;;;;;;;;5092839;28;19920;-91
2023/07/21 13:12:02;;;;;;;;;;;;;;;;;;5093864;28;20294;-91
2023/07/21 13:14:28;;;;;;;;;;;;;;;;;;5096391;28;19943;-90
2023/07/21 13:16:54;;;;;;;;;;;;;;;;;;5093702;28;20363;-90
2023/07/21 13:19:20;;;;;;;;;;;;;;;;;;5109288;28;19924;-88
2023/07/21 13:21:46;;;;;;;;;;;;;;;;;;5108687;28;19920;-89
2023/07/21 13:24:11;;;;;;;;;;;;;;;;;;5091566;28;20234;-89
2023/07/21 13:26:38;;;;;;;;;;;;;;;;;;5109487;28;20396;-89
2023/07/21 13:29:04;;;;;;;;;;;;;;;;;;5091813;28;20248;-90
2023/07/21 13:31:31;;;;;;;;;;;;;;;;;;5091615;28;19927;-89
2023/07/21 13:33:56;;;;;;;;;;;;;;;;;;5091387;28;19969;-89
2023/07/21 13:36:22;;;;;;;;;;;;;;;;;;5090842;28;19924;-88
2023/07/21 13:38:48;;;;;;;;;;;;;;;;;;5091086;28;19929;-90
2023/07/21 13:41:14;;;;;;;;;;;;;;;;;;5108399;28;19926;-89
2023/07/21 13:43:40;;;;;;;;;;;;;;;;;;5091410;28;19920;-90
2023/07/21 13:46:06;;;;;;;;;;;;;;;;;;5107962;28;19920;-89
2023/07/21 13:48:32;;;;;;;;;;;;;;;;;;5108039;28;19924;-91
2023/07/21 13:50:58;;;;;;;;;;;;;;;;;;5090901;28;19924;-89
2023/07/21 13:53:24;;;;;;;;;;;;;;;;;;5109407;28;20326;-87
2023/07/21 13:55:50;;;;;;;;;;;;;;;;;;5115652;28;20354;-88
2023/07/21 13:58:16;;;;;;;;;;;;;;;;;;5110933;28;19923;-88
2023/07/21 14:00:42;;;;;;;;;;;;;;;;;;5129573;27;19943;-88
2023/07/21 14:03:08;;;;;;;;;;;;;;;;;;5106702;28;19940;-87
2023/07/21 14:05:34;;;;;;;;;;;;;;;;;;5108987;28;19963;-88
2023/07/21 14:08:00;;;;;;;;;;;;;;;;;;5098250;28;19928;-89
2023/07/21 14:10:26;;;;;;;;;;;;;;;;;;5076689;28;20303;-87
2023/07/21 14:12:52;;;;;;;;;;;;;;;;;;5093683;28;19924;-89
2023/07/21 14:15:18;;;;;;;;;;;;;;;;;;5077004;28;19924;-88
2023/07/21 14:17:44;;;;;;;;;;;;;;;;;;5076536;28;20383;-89
2023/07/21 14:20:12;;;;;;;;;;;;;;;;;;5093683;28;19920;-88
2023/07/21 14:22:38;;;;;;;;;;;;;;;;;;5076210;28;19920;-86
2023/07/21 14:25:05;;;;;;;;;;;;;;;;;;5076473;28;20061;-86
2023/07/21 14:27:30;;;;;;;;;;;;;;;;;;5093411;28;19920;-85
2023/07/21 14:29:56;;;;;;;;;;;;;;;;;;5093215;28;19920;-86
2023/07/21 14:32:22;;;;;;;;;;;;;;;;;;5095369;28;19928;-85
2023/07/21 14:34:50;;;;;;;;;;;;;;;;;;5093156;28;19973;-86
2023/07/21 14:37:16;;;;;;;;;;;;;;;;;;5076021;28;20003;-86
2023/07/21 14:39:42;;;;;;;;;;;;;;;;;;5094508;28;20352;-90
2023/07/21 14:42:08;;;;;;;;;;;;;;;;;;5076345;28;19920;-87
2023/07/21 14:44:36;;;;;;;;;;;;;;;;;;5094788;28;20014;-86
2023/07/21 14:47:02;;;;;;;;;;;;;;;;;;5094432;28;20010;-87
2023/07/21 14:49:28;;;;;;;;;;;;;;;;;;5093096;28;20385;-87
2023/07/21 14:51:54;;;;;;;;;;;;;;;;;;5093121;28;19920;-86
2023/07/21 14:54:19;;;;;;;;;;;;;;;;;;5092860;28;19921;-87
2023/07/21 14:56:45;;;;;;;;;;;;;;;;;;5093988;28;19946;-89
2023/07/21 14:59:11;;;;;;;;;;;;;;;;;;5093207;28;19927;-90
2023/07/21 15:01:37;;;;;;;;;;;;;;;;;;5093220;28;19927;-89
2023/07/21 15:04:03;;;;;;;;;;;;;;;;;;5092867;28;20283;-88
2023/07/21 15:06:29;;;;;;;;;;;;;;;;;;5093942;28;19920;-88
2023/07/21 15:08:55;;;;;;;;;;;;;;;;;;5076099;28;19927;-88
2023/07/21 15:11:21;;;;;;;;;;;;;;;;;;5093215;28;19966;-89
2023/07/21 15:13:47;;;;;;;;;;;;;;;;;;5092834;28;19920;-89
2023/07/21 15:16:13;;;;;;;;;;;;;;;;;;5092751;28;20379;-89
2023/07/21 15:18:39;;;;;;;;;;;;;;;;;;5091846;28;19926;-89
2023/07/21 15:21:05;;;;;;;;;;;;;;;;;;5092545;28;19931;-93
2023/07/21 15:23:31;;;;;;;;;;;;;;;;;;5093474;28;19920;-89
2023/07/21 15:25:57;;;;;;;;;;;;;;;;;;5075687;28;19927;-86
2023/07/21 15:28:23;;;;;;;;;;;;;;;;;;5093917;28;19920;-87
2023/07/21 15:30:49;;;;;;;;;;;;;;;;;;5093708;28;19920;-87
2023/07/21 15:33:15;;;;;;;;;;;;;;;;;;5092354;28;19927;-87
2023/07/21 15:35:41;;;;;;;;;;;;;;;;;;5093541;28;19946;-88
2023/07/21 15:38:07;;;;;;;;;;;;;;;;;;5075374;28;20375;-91
2023/07/21 15:40:33;;;;;;;;;;;;;;;;;;5092711;28;20335;-89
2023/07/21 15:42:59;;;;;;;;;;;;;;;;;;5076483;28;20009;-92
2023/07/21 15:45:25;;;;;;;;;;;;;;;;;;5093452;28;19920;-88
2023/07/21 15:47:51;;;;;;;;;;;;;;;;;;5075243;28;19920;-89
2023/07/21 15:50:17;;;;;;;;;;;;;;;;;;5092422;28;19920;-89
2023/07/21 15:52:43;;;;;;;;;;;;;;;;;;5075858;28;19921;-88
2023/07/21 15:55:10;;;;;;;;;;;;;;;;;;5091975;28;20295;-88
2023/07/21 15:57:36;;;;;;;;;;;;;;;;;;5091753;28;20355;-87
2023/07/21 16:00:04;;;;;;;;;;;;;;;;;;5091882;28;19924;-88
2023/07/21 16:02:30;;;;;;;;;;;;;;;;;;5074733;28;19993;-87
2023/07/21 16:04:56;;;;;;;;;;;;;;;;;;5075178;28;20267;-88
2023/07/21 16:07:22;;;;;;;;;;;;;;;;;;5075163;28;20438;-88
2023/07/21 16:09:48;;;;;;;;;;;;;;;;;;5091910;28;19926;-88
2023/07/21 16:12:14;;;;;;;;;;;;;;;;;;5092900;28;19920;-88
2023/07/21 16:14:40;;;;;;;;;;;;;;;;;;5074653;28;20362;-88
2023/07/21 16:17:06;;;;;;;;;;;;;;;;;;5091303;28;19920;-88
2023/07/21 16:19:31;;;;;;;;;;;;;;;;;;5074473;28;19924;-88
2023/07/21 16:21:57;;;;;;;;;;;;;;;;;;5074821;28;19920;-90
2023/07/21 16:24:23;;;;;;;;;;;;;;;;;;5074551;28;19920;-89
2023/07/21 16:26:50;;;;;;;;;;;;;;;;;;5091699;28;19989;-88
2023/07/21 16:29:17;;;;;;;;;;;;;;;;;;5074495;28;19996;-88
2023/07/21 16:31:42;;;;;;;;;;;;;;;;;;5074448;28;19924;-94
2023/07/21 16:34:09;;;;;;;;;;;;;;;;;;5094056;28;20023;-96
2023/07/21 16:36:35;;;;;;;;;;;;;;;;;;5092537;28;19989;-90
2023/07/21 16:39:00;;;;;;;;;;;;;;;;;;5092187;28;19924;-91